sensor_id;sensor_type;location;lat;lon;timestamp;P1;durP1;ratioP1;P2;durP2;ratioP2
40012;SDS011;37387;42.672;23.334;2022-12-31T00:01:25;66.9;;;33.1;;
40012;SDS011;37387;42.672;23.334;2022-12-31T00:02:25;66.1;;;31.0;;
40012;SDS011;37387;42.672;23.334;2022-12-31T00:03:25;57.9;;;29.4;;
40012;SDS011;37387;42.672;23.334;2022-12-31T00:04:25;60.6;;;30.5;;
40012;SDS011;37387;42.672;23.334;2022-12-31T00:05:25;64.0;;;31.5;;
40012;SDS011;37387;42.672;23.334;2022-12-31T00:06:27;66.8;;;33.2;;
40012;SDS011;37387;42.672;23.334;2022-12-31T00:07:25;66.8;;;34.1;;
40012;SDS011;37387;42.672;23.334;2022-12-31T00:08:25;68.0;;;33.9;;
40012;SDS011;37387;42.672;23.334;2022-12-31T00:09:25;68.0;;;34.6;;
40012;SDS011;37387;42.672;23.334;2022-12-31T00:10:24;74.0;;;33.9;;
40012;SDS011;37387;42.672;23.334;2022-12-31T00:11:25;58.6;;;31.0;;
40012;SDS011;37387;42.672;23.334;2022-12-31T00:12:24;58.6;;;31.4;;
40012;SDS011;37387;42.672;23.334;2022-12-31T00:13:24;58.7;;;32.7;;
40012;SDS011;37387;42.672;23.334;2022-12-31T00:14:24;58.7;;;32.1;;
40012;SDS011;37387;42.672;23.334;2022-12-31T00:15:24;63.3;;;31.9;;
40012;SDS011;37387;42.672;23.334;2022-12-31T00:16:25;63.3;;;30.9;;
40012;SDS011;37387;42.672;23.334;2022-12-31T00:17:24;60.0;;;30.7;;
40012;SDS011;37387;42.672;23.334;2022-12-31T00:18:24;60.6;;;32.1;;
40012;SDS011;37387;42.672;23.334;2022-12-31T00:19:24;63.4;;;31.1;;
40012;SDS011;37387;42.672;23.334;2022-12-31T00:20:24;60.7;;;30.9;;
40012;SDS011;37387;42.672;23.334;2022-12-31T00:21:24;60.7;;;29.9;;
40012;SDS011;37387;42.672;23.334;2022-12-31T00:23:24;60.2;;;29.1;;
40012;SDS011;37387;42.672;23.334;2022-12-31T00:24:23;61.1;;;41.5;;
40012;SDS011;37387;42.672;23.334;2022-12-31T00:25:23;74.1;;;38.5;;
40012;SDS011;37387;42.672;23.334;2022-12-31T00:26:24;70.4;;;37.1;;
40012;SDS011;37387;42.672;23.334;2022-12-31T00:27:23;58.9;;;31.2;;
40012;SDS011;37387;42.672;23.334;2022-12-31T00:28:23;57.1;;;28.7;;
40012;SDS011;37387;42.672;23.334;2022-12-31T00:29:23;57.1;;;29.6;;
40012;SDS011;37387;42.672;23.334;2022-12-31T00:30:23;59.0;;;28.6;;
40012;SDS011;37387;42.672;23.334;2022-12-31T00:31:24;57.3;;;28.8;;
40012;SDS011;37387;42.672;23.334;2022-12-31T00:32:23;58.3;;;28.7;;
40012;SDS011;37387;42.672;23.334;2022-12-31T00:33:23;53.5;;;28.6;;
40012;SDS011;37387;42.672;23.334;2022-12-31T00:34:23;52.2;;;28.3;;
40012;SDS011;37387;42.672;23.334;2022-12-31T00:35:23;53.3;;;27.8;;
40012;SDS011;37387;42.672;23.334;2022-12-31T00:36:23;54.6;;;27.3;;
40012;SDS011;37387;42.672;23.334;2022-12-31T00:37:23;56.0;;;26.7;;
40012;SDS011;37387;42.672;23.334;2022-12-31T00:38:23;52.6;;;27.9;;
40012;SDS011;37387;42.672;23.334;2022-12-31T00:39:23;53.9;;;28.4;;
40012;SDS011;37387;42.672;23.334;2022-12-31T00:40:22;56.4;;;26.6;;
40012;SDS011;37387;42.672;23.334;2022-12-31T00:41:23;52.7;;;27.7;;
40012;SDS011;37387;42.672;23.334;2022-12-31T00:42:22;56.2;;;27.1;;
40012;SDS011;37387;42.672;23.334;2022-12-31T00:43:22;64.6;;;32.5;;
40012;SDS011;37387;42.672;23.334;2022-12-31T00:44:22;58.9;;;29.1;;
40012;SDS011;37387;42.672;23.334;2022-12-31T00:45:22;58.9;;;28.3;;
40012;SDS011;37387;42.672;23.334;2022-12-31T00:46:22;53.2;;;28.1;;
40012;SDS011;37387;42.672;23.334;2022-12-31T00:47:22;53.2;;;29.0;;
40012;SDS011;37387;42.672;23.334;2022-12-31T00:48:22;57.6;;;33.7;;
40012;SDS011;37387;42.672;23.334;2022-12-31T00:49:22;67.2;;;33.1;;
40012;SDS011;37387;42.672;23.334;2022-12-31T00:50:22;66.5;;;30.2;;
40012;SDS011;37387;42.672;23.334;2022-12-31T00:51:22;61.9;;;28.8;;
40012;SDS011;37387;42.672;23.334;2022-12-31T00:52:22;61.9;;;29.4;;
40012;SDS011;37387;42.672;23.334;2022-12-31T00:53:22;58.7;;;28.8;;
40012;SDS011;37387;42.672;23.334;2022-12-31T00:54:21;60.0;;;28.9;;
40012;SDS011;37387;42.672;23.334;2022-12-31T00:55:21;58.6;;;30.3;;
40012;SDS011;37387;42.672;23.334;2022-12-31T00:56:23;63.3;;;30.4;;
40012;SDS011;37387;42.672;23.334;2022-12-31T00:57:21;58.0;;;29.7;;
40012;SDS011;37387;42.672;23.334;2022-12-31T00:58:21;59.5;;;30.3;;
40012;SDS011;37387;42.672;23.334;2022-12-31T01:00:21;59.4;;;30.8;;
40012;SDS011;37387;42.672;23.334;2022-12-31T01:01:22;59.4;;;32.7;;
40012;SDS011;37387;42.672;23.334;2022-12-31T01:02:21;63.1;;;32.5;;
40012;SDS011;37387;42.672;23.334;2022-12-31T01:03:21;67.7;;;34.3;;
40012;SDS011;37387;42.672;23.334;2022-12-31T01:04:21;64.4;;;33.6;;
40012;SDS011;37387;42.672;23.334;2022-12-31T01:05:21;64.4;;;33.8;;
40012;SDS011;37387;42.672;23.334;2022-12-31T01:06:21;64.4;;;36.6;;
40012;SDS011;37387;42.672;23.334;2022-12-31T01:07:21;73.4;;;36.0;;
40012;SDS011;37387;42.672;23.334;2022-12-31T01:08:20;75.3;;;37.9;;
40012;SDS011;37387;42.672;23.334;2022-12-31T01:09:20;70.9;;;37.2;;
40012;SDS011;37387;42.672;23.334;2022-12-31T01:10:20;80.0;;;39.9;;
40012;SDS011;37387;42.672;23.334;2022-12-31T01:11:20;80.0;;;41.9;;
40012;SDS011;37387;42.672;23.334;2022-12-31T01:12:20;82.5;;;42.6;;
40012;SDS011;37387;42.672;23.334;2022-12-31T01:13:20;83.8;;;41.5;;
40012;SDS011;37387;42.672;23.334;2022-12-31T01:14:20;78.2;;;40.9;;
40012;SDS011;37387;42.672;23.334;2022-12-31T01:15:20;79.8;;;43.4;;
40012;SDS011;37387;42.672;23.334;2022-12-31T01:16:21;84.8;;;43.3;;
40012;SDS011;37387;42.672;23.334;2022-12-31T01:17:20;87.1;;;41.4;;
40012;SDS011;37387;42.672;23.334;2022-12-31T01:18:20;83.8;;;42.6;;
40012;SDS011;37387;42.672;23.334;2022-12-31T01:19:21;83.8;;;44.4;;
40012;SDS011;37387;42.672;23.334;2022-12-31T01:20:20;87.6;;;43.9;;
40012;SDS011;37387;42.672;23.334;2022-12-31T01:21:20;87.5;;;44.1;;
40012;SDS011;37387;42.672;23.334;2022-12-31T01:22:19;88.4;;;45.3;;
40012;SDS011;37387;42.672;23.334;2022-12-31T01:24:20;88.8;;;45.7;;
40012;SDS011;37387;42.672;23.334;2022-12-31T01:25:19;89.6;;;51.2;;
40012;SDS011;37387;42.672;23.334;2022-12-31T01:26:19;106.1;;;51.6;;
40012;SDS011;37387;42.672;23.334;2022-12-31T01:27:19;109.4;;;52.1;;
40012;SDS011;37387;42.672;23.334;2022-12-31T01:28:19;108.1;;;51.7;;
40012;SDS011;37387;42.672;23.334;2022-12-31T01:29:19;103.4;;;50.8;;
40012;SDS011;37387;42.672;23.334;2022-12-31T01:30:19;100.1;;;49.7;;
40012;SDS011;37387;42.672;23.334;2022-12-31T01:31:19;105.2;;;48.0;;
40012;SDS011;37387;42.672;23.334;2022-12-31T01:32:19;96.6;;;47.6;;
40012;SDS011;37387;42.672;23.334;2022-12-31T01:33:19;96.6;;;47.1;;
40012;SDS011;37387;42.672;23.334;2022-12-31T01:34:19;96.0;;;49.4;;
40012;SDS011;37387;42.672;23.334;2022-12-31T01:35:19;102.3;;;46.5;;
40012;SDS011;37387;42.672;23.334;2022-12-31T01:36:19;93.1;;;47.6;;
40012;SDS011;37387;42.672;23.334;2022-12-31T01:37:18;100.2;;;47.2;;
40012;SDS011;37387;42.672;23.334;2022-12-31T01:38:18;100.2;;;50.1;;
40012;SDS011;37387;42.672;23.334;2022-12-31T01:39:18;101.3;;;49.4;;
40012;SDS011;37387;42.672;23.334;2022-12-31T01:40:18;102.0;;;48.0;;
40012;SDS011;37387;42.672;23.334;2022-12-31T01:41:20;95.6;;;47.3;;
40012;SDS011;37387;42.672;23.334;2022-12-31T01:43:18;99.1;;;45.7;;
40012;SDS011;37387;42.672;23.334;2022-12-31T01:45:18;91.4;;;44.7;;
40012;SDS011;37387;42.672;23.334;2022-12-31T01:46:21;91.4;;;43.5;;
40012;SDS011;37387;42.672;23.334;2022-12-31T01:47:19;88.4;;;43.0;;
40012;SDS011;37387;42.672;23.334;2022-12-31T01:48:20;84.8;;;40.2;;
40012;SDS011;37387;42.672;23.334;2022-12-31T01:49:18;79.8;;;41.3;;
40012;SDS011;37387;42.672;23.334;2022-12-31T01:50:18;84.4;;;41.8;;
40012;SDS011;37387;42.672;23.334;2022-12-31T01:51:17;81.4;;;41.0;;
40012;SDS011;37387;42.672;23.334;2022-12-31T01:52:19;82.8;;;42.8;;
40012;SDS011;37387;42.672;23.334;2022-12-31T01:53:17;84.6;;;46.3;;
40012;SDS011;37387;42.672;23.334;2022-12-31T01:54:17;92.9;;;45.9;;
40012;SDS011;37387;42.672;23.334;2022-12-31T01:55:18;93.0;;;49.5;;
40012;SDS011;37387;42.672;23.334;2022-12-31T01:56:17;99.3;;;50.0;;
40012;SDS011;37387;42.672;23.334;2022-12-31T01:57:17;97.4;;;51.6;;
40012;SDS011;37387;42.672;23.334;2022-12-31T01:58:17;104.7;;;50.5;;
40012;SDS011;37387;42.672;23.334;2022-12-31T01:59:16;107.6;;;48.9;;
40012;SDS011;37387;42.672;23.334;2022-12-31T02:00:16;102.4;;;48.2;;
40012;SDS011;37387;42.672;23.334;2022-12-31T02:01:18;98.6;;;47.6;;
40012;SDS011;37387;42.672;23.334;2022-12-31T02:02:16;97.4;;;46.7;;
40012;SDS011;37387;42.672;23.334;2022-12-31T02:03:16;97.4;;;44.2;;
40012;SDS011;37387;42.672;23.334;2022-12-31T02:04:16;89.3;;;39.6;;
40012;SDS011;37387;42.672;23.334;2022-12-31T02:05:17;68.6;;;33.2;;
40012;SDS011;37387;42.672;23.334;2022-12-31T02:06:17;77.6;;;37.8;;
40012;SDS011;37387;42.672;23.334;2022-12-31T02:07:16;77.6;;;39.9;;
40012;SDS011;37387;42.672;23.334;2022-12-31T02:08:16;79.9;;;41.6;;
40012;SDS011;37387;42.672;23.334;2022-12-31T02:09:16;81.2;;;37.2;;
40012;SDS011;37387;42.672;23.334;2022-12-31T02:10:15;81.0;;;37.4;;
40012;SDS011;37387;42.672;23.334;2022-12-31T02:11:18;78.1;;;41.5;;
40012;SDS011;37387;42.672;23.334;2022-12-31T02:12:15;83.6;;;43.5;;
40012;SDS011;37387;42.672;23.334;2022-12-31T02:13:15;78.2;;;40.0;;
40012;SDS011;37387;42.672;23.334;2022-12-31T02:14:20;78.2;;;49.2;;
40012;SDS011;37387;42.672;23.334;2022-12-31T02:15:15;97.0;;;62.5;;
40012;SDS011;37387;42.672;23.334;2022-12-31T02:16:16;152.2;;;74.6;;
40012;SDS011;37387;42.672;23.334;2022-12-31T02:17:15;152.2;;;67.6;;
40012;SDS011;37387;42.672;23.334;2022-12-31T02:18:17;128.7;;;62.9;;
40012;SDS011;37387;42.672;23.334;2022-12-31T02:19:23;128.7;;;63.4;;
40012;SDS011;37387;42.672;23.334;2022-12-31T02:20:20;109.5;;;54.8;;
40012;SDS011;37387;42.672;23.334;2022-12-31T02:21:19;109.5;;;43.7;;
40012;SDS011;37387;42.672;23.334;2022-12-31T02:22:16;91.8;;;43.1;;
40012;SDS011;37387;42.672;23.334;2022-12-31T02:23:21;85.8;;;44.2;;
40012;SDS011;37387;42.672;23.334;2022-12-31T02:24:20;85.6;;;43.0;;
40012;SDS011;37387;42.672;23.334;2022-12-31T02:25:19;85.6;;;40.8;;
40012;SDS011;37387;42.672;23.334;2022-12-31T02:26:15;83.9;;;39.8;;
40012;SDS011;37387;42.672;23.334;2022-12-31T02:27:17;90.7;;;47.5;;
40012;SDS011;37387;42.672;23.334;2022-12-31T02:28:18;90.7;;;45.2;;
40012;SDS011;37387;42.672;23.334;2022-12-31T02:30:14;88.2;;;40.9;;
40012;SDS011;37387;42.672;23.334;2022-12-31T02:31:15;84.5;;;39.3;;
40012;SDS011;37387;42.672;23.334;2022-12-31T02:32:14;76.5;;;39.0;;
40012;SDS011;37387;42.672;23.334;2022-12-31T02:33:15;79.1;;;36.1;;
40012;SDS011;37387;42.672;23.334;2022-12-31T02:34:15;72.4;;;44.9;;
40012;SDS011;37387;42.672;23.334;2022-12-31T02:35:14;87.7;;;42.8;;
40012;SDS011;37387;42.672;23.334;2022-12-31T02:37:13;81.6;;;42.0;;
40012;SDS011;37387;42.672;23.334;2022-12-31T02:38:14;80.1;;;42.2;;
40012;SDS011;37387;42.672;23.334;2022-12-31T02:39:13;80.1;;;38.3;;
40012;SDS011;37387;42.672;23.334;2022-12-31T02:40:14;77.9;;;39.9;;
40012;SDS011;37387;42.672;23.334;2022-12-31T02:41:13;79.4;;;41.3;;
40012;SDS011;37387;42.672;23.334;2022-12-31T02:42:12;86.8;;;41.2;;
40012;SDS011;37387;42.672;23.334;2022-12-31T02:43:12;81.3;;;41.3;;
40012;SDS011;37387;42.672;23.334;2022-12-31T02:45:13;81.8;;;40.0;;
40012;SDS011;37387;42.672;23.334;2022-12-31T02:46:14;78.6;;;41.1;;
40012;SDS011;37387;42.672;23.334;2022-12-31T02:48:16;82.2;;;41.4;;
40012;SDS011;37387;42.672;23.334;2022-12-31T02:49:13;81.7;;;36.2;;
40012;SDS011;37387;42.672;23.334;2022-12-31T02:50:16;71.5;;;37.2;;
40012;SDS011;37387;42.672;23.334;2022-12-31T02:51:17;71.5;;;37.6;;
40012;SDS011;37387;42.672;23.334;2022-12-31T02:52:13;72.8;;;40.1;;
40012;SDS011;37387;42.672;23.334;2022-12-31T02:53:15;78.5;;;35.6;;
40012;SDS011;37387;42.672;23.334;2022-12-31T02:54:16;67.9;;;37.3;;
40012;SDS011;37387;42.672;23.334;2022-12-31T02:55:13;72.9;;;38.3;;
40012;SDS011;37387;42.672;23.334;2022-12-31T02:56:12;77.9;;;38.4;;
40012;SDS011;37387;42.672;23.334;2022-12-31T02:57:12;77.9;;;37.1;;
40012;SDS011;37387;42.672;23.334;2022-12-31T02:58:13;73.0;;;38.3;;
40012;SDS011;37387;42.672;23.334;2022-12-31T02:59:12;69.4;;;36.1;;
40012;SDS011;37387;42.672;23.334;2022-12-31T03:00:11;69.4;;;33.6;;
40012;SDS011;37387;42.672;23.334;2022-12-31T03:01:11;69.7;;;38.3;;
40012;SDS011;37387;42.672;23.334;2022-12-31T03:02:12;79.3;;;41.8;;
40012;SDS011;37387;42.672;23.334;2022-12-31T03:03:11;82.4;;;38.9;;
40012;SDS011;37387;42.672;23.334;2022-12-31T03:04:11;78.7;;;40.0;;
40012;SDS011;37387;42.672;23.334;2022-12-31T03:05:10;78.7;;;38.8;;
40012;SDS011;37387;42.672;23.334;2022-12-31T03:06:10;75.4;;;39.4;;
40012;SDS011;37387;42.672;23.334;2022-12-31T03:07:11;65.1;;;35.6;;
40012;SDS011;37387;42.672;23.334;2022-12-31T03:08:10;65.1;;;34.8;;
40012;SDS011;37387;42.672;23.334;2022-12-31T03:10:10;68.2;;;36.0;;
40012;SDS011;37387;42.672;23.334;2022-12-31T03:12:10;68.0;;;34.0;;
40012;SDS011;37387;42.672;23.334;2022-12-31T03:13:10;64.4;;;34.8;;
40012;SDS011;37387;42.672;23.334;2022-12-31T03:14:10;65.6;;;33.0;;
40012;SDS011;37387;42.672;23.334;2022-12-31T03:15:10;65.6;;;33.4;;
40012;SDS011;37387;42.672;23.334;2022-12-31T03:16:09;63.9;;;35.5;;
40012;SDS011;37387;42.672;23.334;2022-12-31T03:17:09;68.1;;;35.4;;
40012;SDS011;37387;42.672;23.334;2022-12-31T03:18:10;68.1;;;34.9;;
40012;SDS011;37387;42.672;23.334;2022-12-31T03:19:09;68.1;;;35.1;;
40012;SDS011;37387;42.672;23.334;2022-12-31T03:20:09;70.1;;;35.4;;
40012;SDS011;37387;42.672;23.334;2022-12-31T03:21:10;69.6;;;34.3;;
40012;SDS011;37387;42.672;23.334;2022-12-31T03:22:10;69.6;;;34.6;;
40012;SDS011;37387;42.672;23.334;2022-12-31T03:23:10;65.1;;;35.2;;
40012;SDS011;37387;42.672;23.334;2022-12-31T03:24:09;71.3;;;35.5;;
40012;SDS011;37387;42.672;23.334;2022-12-31T03:25:10;70.7;;;34.1;;
40012;SDS011;37387;42.672;23.334;2022-12-31T03:26:09;72.7;;;35.4;;
40012;SDS011;37387;42.672;23.334;2022-12-31T03:27:08;72.7;;;35.9;;
40012;SDS011;37387;42.672;23.334;2022-12-31T03:28:11;66.4;;;37.0;;
40012;SDS011;37387;42.672;23.334;2022-12-31T03:29:08;73.8;;;37.1;;
40012;SDS011;37387;42.672;23.334;2022-12-31T03:30:09;78.4;;;39.0;;
40012;SDS011;37387;42.672;23.334;2022-12-31T03:31:08;76.4;;;37.8;;
40012;SDS011;37387;42.672;23.334;2022-12-31T03:32:08;76.6;;;37.4;;
40012;SDS011;37387;42.672;23.334;2022-12-31T03:33:08;71.2;;;35.6;;
40012;SDS011;37387;42.672;23.334;2022-12-31T03:34:08;70.2;;;35.5;;
40012;SDS011;37387;42.672;23.334;2022-12-31T03:35:08;77.1;;;36.3;;
40012;SDS011;37387;42.672;23.334;2022-12-31T03:36:09;77.1;;;35.9;;
40012;SDS011;37387;42.672;23.334;2022-12-31T03:37:08;67.9;;;33.0;;
40012;SDS011;37387;42.672;23.334;2022-12-31T03:38:08;67.0;;;33.2;;
40012;SDS011;37387;42.672;23.334;2022-12-31T03:39:08;70.0;;;34.3;;
40012;SDS011;37387;42.672;23.334;2022-12-31T03:40:08;65.8;;;35.4;;
40012;SDS011;37387;42.672;23.334;2022-12-31T03:41:08;73.7;;;34.4;;
40012;SDS011;37387;42.672;23.334;2022-12-31T03:42:07;66.4;;;34.1;;
40012;SDS011;37387;42.672;23.334;2022-12-31T03:43:07;66.4;;;34.0;;
40012;SDS011;37387;42.672;23.334;2022-12-31T03:44:07;66.6;;;34.1;;
40012;SDS011;37387;42.672;23.334;2022-12-31T03:45:08;72.7;;;34.0;;
40012;SDS011;37387;42.672;23.334;2022-12-31T03:46:07;63.5;;;34.6;;
40012;SDS011;37387;42.672;23.334;2022-12-31T03:47:07;63.5;;;33.9;;
40012;SDS011;37387;42.672;23.334;2022-12-31T03:48:08;68.7;;;32.8;;
40012;SDS011;37387;42.672;23.334;2022-12-31T03:49:07;66.2;;;36.2;;
40012;SDS011;37387;42.672;23.334;2022-12-31T03:50:08;63.9;;;33.4;;
40012;SDS011;37387;42.672;23.334;2022-12-31T03:51:07;65.4;;;33.2;;
40012;SDS011;37387;42.672;23.334;2022-12-31T03:52:07;65.4;;;33.6;;
40012;SDS011;37387;42.672;23.334;2022-12-31T03:53:07;65.5;;;34.1;;
40012;SDS011;37387;42.672;23.334;2022-12-31T03:54:07;66.8;;;34.3;;
40012;SDS011;37387;42.672;23.334;2022-12-31T03:55:07;64.8;;;33.3;;
40012;SDS011;37387;42.672;23.334;2022-12-31T03:56:06;64.8;;;32.7;;
40012;SDS011;37387;42.672;23.334;2022-12-31T03:57:06;66.8;;;32.3;;
40012;SDS011;37387;42.672;23.334;2022-12-31T03:58:06;59.0;;;31.7;;
40012;SDS011;37387;42.672;23.334;2022-12-31T03:59:06;59.0;;;32.2;;
40012;SDS011;37387;42.672;23.334;2022-12-31T04:00:07;64.8;;;33.8;;
40012;SDS011;37387;42.672;23.334;2022-12-31T04:01:06;65.8;;;34.6;;
40012;SDS011;37387;42.672;23.334;2022-12-31T04:02:06;61.6;;;32.6;;
40012;SDS011;37387;42.672;23.334;2022-12-31T04:03:06;61.6;;;34.9;;
40012;SDS011;37387;42.672;23.334;2022-12-31T04:04:06;65.4;;;34.3;;
40012;SDS011;37387;42.672;23.334;2022-12-31T04:05:06;67.9;;;34.5;;
40012;SDS011;37387;42.672;23.334;2022-12-31T04:06:06;68.1;;;34.9;;
40012;SDS011;37387;42.672;23.334;2022-12-31T04:07:05;68.1;;;33.9;;
40012;SDS011;37387;42.672;23.334;2022-12-31T04:08:05;70.0;;;35.4;;
40012;SDS011;37387;42.672;23.334;2022-12-31T04:09:05;70.0;;;34.9;;
40012;SDS011;37387;42.672;23.334;2022-12-31T04:10:06;70.1;;;36.2;;
40012;SDS011;37387;42.672;23.334;2022-12-31T04:12:05;72.8;;;37.5;;
40012;SDS011;37387;42.672;23.334;2022-12-31T04:13:05;73.3;;;36.0;;
40012;SDS011;37387;42.672;23.334;2022-12-31T04:14:05;70.1;;;35.9;;
40012;SDS011;37387;42.672;23.334;2022-12-31T04:15:05;67.8;;;37.5;;
40012;SDS011;37387;42.672;23.334;2022-12-31T04:16:05;72.0;;;38.9;;
40012;SDS011;37387;42.672;23.334;2022-12-31T04:17:05;74.3;;;38.0;;
40012;SDS011;37387;42.672;23.334;2022-12-31T04:18:05;74.3;;;39.5;;
40012;SDS011;37387;42.672;23.334;2022-12-31T04:19:05;77.1;;;38.6;;
40012;SDS011;37387;42.672;23.334;2022-12-31T04:20:05;77.1;;;38.4;;
40012;SDS011;37387;42.672;23.334;2022-12-31T04:21:04;76.8;;;38.8;;
40012;SDS011;37387;42.672;23.334;2022-12-31T04:22:04;72.1;;;39.1;;
40012;SDS011;37387;42.672;23.334;2022-12-31T04:23:04;77.2;;;37.2;;
40012;SDS011;37387;42.672;23.334;2022-12-31T04:24:04;74.9;;;38.4;;
40012;SDS011;37387;42.672;23.334;2022-12-31T04:25:05;74.9;;;39.0;;
40012;SDS011;37387;42.672;23.334;2022-12-31T04:26:04;82.5;;;40.3;;
40012;SDS011;37387;42.672;23.334;2022-12-31T04:27:04;82.5;;;39.4;;
40012;SDS011;37387;42.672;23.334;2022-12-31T04:28:04;78.0;;;40.2;;
40012;SDS011;37387;42.672;23.334;2022-12-31T04:29:04;80.0;;;40.0;;
40012;SDS011;37387;42.672;23.334;2022-12-31T04:30:04;79.7;;;41.4;;
40012;SDS011;37387;42.672;23.334;2022-12-31T04:31:04;87.9;;;45.6;;
40012;SDS011;37387;42.672;23.334;2022-12-31T04:32:04;90.0;;;45.4;;
40012;SDS011;37387;42.672;23.334;2022-12-31T04:33:03;86.6;;;44.0;;
40012;SDS011;37387;42.672;23.334;2022-12-31T04:34:03;86.6;;;44.5;;
40012;SDS011;37387;42.672;23.334;2022-12-31T04:35:03;90.2;;;47.9;;
40012;SDS011;37387;42.672;23.334;2022-12-31T04:36:04;92.0;;;49.2;;
40012;SDS011;37387;42.672;23.334;2022-12-31T04:37:03;93.6;;;47.3;;
40012;SDS011;37387;42.672;23.334;2022-12-31T04:38:03;95.3;;;48.0;;
40012;SDS011;37387;42.672;23.334;2022-12-31T04:39:03;95.3;;;47.2;;
40012;SDS011;37387;42.672;23.334;2022-12-31T04:40:03;99.7;;;48.0;;
40012;SDS011;37387;42.672;23.334;2022-12-31T04:41:03;96.7;;;48.2;;
40012;SDS011;37387;42.672;23.334;2022-12-31T04:42:02;90.6;;;49.1;;
40012;SDS011;37387;42.672;23.334;2022-12-31T04:44:02;96.5;;;50.3;;
40012;SDS011;37387;42.672;23.334;2022-12-31T04:45:03;99.3;;;49.8;;
40012;SDS011;37387;42.672;23.334;2022-12-31T04:46:02;101.2;;;51.5;;
40012;SDS011;37387;42.672;23.334;2022-12-31T04:47:02;101.9;;;51.4;;
40012;SDS011;37387;42.672;23.334;2022-12-31T04:48:02;97.2;;;50.5;;
40012;SDS011;37387;42.672;23.334;2022-12-31T04:49:02;100.4;;;50.6;;
40012;SDS011;37387;42.672;23.334;2022-12-31T04:50:02;100.4;;;51.8;;
40012;SDS011;37387;42.672;23.334;2022-12-31T04:51:02;98.9;;;51.6;;
40012;SDS011;37387;42.672;23.334;2022-12-31T04:52:01;98.9;;;52.1;;
40012;SDS011;37387;42.672;23.334;2022-12-31T04:53:01;103.3;;;51.4;;
40012;SDS011;37387;42.672;23.334;2022-12-31T04:54:01;103.3;;;52.7;;
40012;SDS011;37387;42.672;23.334;2022-12-31T04:56:02;105.3;;;53.4;;
40012;SDS011;37387;42.672;23.334;2022-12-31T04:57:01;105.3;;;53.9;;
40012;SDS011;37387;42.672;23.334;2022-12-31T04:58:01;105.7;;;53.2;;
40012;SDS011;37387;42.672;23.334;2022-12-31T04:59:01;105.7;;;53.7;;
40012;SDS011;37387;42.672;23.334;2022-12-31T05:00:01;109.7;;;55.2;;
40012;SDS011;37387;42.672;23.334;2022-12-31T05:01:01;116.1;;;55.3;;
40012;SDS011;37387;42.672;23.334;2022-12-31T05:02:01;115.7;;;56.4;;
40012;SDS011;37387;42.672;23.334;2022-12-31T05:03:00;115.5;;;54.3;;
40012;SDS011;37387;42.672;23.334;2022-12-31T05:04:00;106.8;;;53.8;;
40012;SDS011;37387;42.672;23.334;2022-12-31T05:05:00;103.3;;;52.1;;
40012;SDS011;37387;42.672;23.334;2022-12-31T05:06:00;103.3;;;52.2;;
40012;SDS011;37387;42.672;23.334;2022-12-31T05:07:00;106.1;;;52.0;;
40012;SDS011;37387;42.672;23.334;2022-12-31T05:08:00;102.8;;;51.6;;
40012;SDS011;37387;42.672;23.334;2022-12-31T05:09:00;104.2;;;52.7;;
40012;SDS011;37387;42.672;23.334;2022-12-31T05:10:00;106.0;;;52.4;;
40012;SDS011;37387;42.672;23.334;2022-12-31T05:11:00;109.2;;;52.1;;
40012;SDS011;37387;42.672;23.334;2022-12-31T05:12:00;104.7;;;53.2;;
40012;SDS011;37387;42.672;23.334;2022-12-31T05:12:59;109.0;;;52.8;;
40012;SDS011;37387;42.672;23.334;2022-12-31T05:13:59;102.1;;;52.1;;
40012;SDS011;37387;42.672;23.334;2022-12-31T05:14:59;103.6;;;52.3;;
40012;SDS011;37387;42.672;23.334;2022-12-31T05:15:59;106.4;;;52.2;;
40012;SDS011;37387;42.672;23.334;2022-12-31T05:16:59;104.6;;;50.8;;
40012;SDS011;37387;42.672;23.334;2022-12-31T05:17:59;99.7;;;52.2;;
40012;SDS011;37387;42.672;23.334;2022-12-31T05:18:59;106.9;;;52.6;;
40012;SDS011;37387;42.672;23.334;2022-12-31T05:19:59;104.3;;;52.4;;
40012;SDS011;37387;42.672;23.334;2022-12-31T05:20:59;105.4;;;55.4;;
40012;SDS011;37387;42.672;23.334;2022-12-31T05:21:58;110.7;;;55.0;;
40012;SDS011;37387;42.672;23.334;2022-12-31T05:22:58;108.3;;;54.7;;
40012;SDS011;37387;42.672;23.334;2022-12-31T05:23:58;108.3;;;53.5;;
40012;SDS011;37387;42.672;23.334;2022-12-31T05:24:59;106.3;;;53.0;;
40012;SDS011;37387;42.672;23.334;2022-12-31T05:25:58;101.8;;;51.9;;
40012;SDS011;37387;42.672;23.334;2022-12-31T05:26:58;101.8;;;52.6;;
40012;SDS011;37387;42.672;23.334;2022-12-31T05:27:58;106.1;;;53.2;;
40012;SDS011;37387;42.672;23.334;2022-12-31T05:28:58;106.1;;;54.1;;
40012;SDS011;37387;42.672;23.334;2022-12-31T05:29:58;107.2;;;53.8;;
40012;SDS011;37387;42.672;23.334;2022-12-31T05:30:57;107.2;;;53.7;;
40012;SDS011;37387;42.672;23.334;2022-12-31T05:31:57;108.4;;;52.8;;
40012;SDS011;37387;42.672;23.334;2022-12-31T05:32:57;106.6;;;54.5;;
40012;SDS011;37387;42.672;23.334;2022-12-31T05:33:57;105.6;;;48.2;;
40012;SDS011;37387;42.672;23.334;2022-12-31T05:34:57;96.4;;;48.6;;
40012;SDS011;37387;42.672;23.334;2022-12-31T05:35:57;100.5;;;47.9;;
40012;SDS011;37387;42.672;23.334;2022-12-31T05:36:57;100.5;;;48.6;;
40012;SDS011;37387;42.672;23.334;2022-12-31T05:37:58;94.2;;;48.9;;
40012;SDS011;37387;42.672;23.334;2022-12-31T05:38:56;95.3;;;48.3;;
40012;SDS011;37387;42.672;23.334;2022-12-31T05:39:56;94.5;;;47.2;;
40012;SDS011;37387;42.672;23.334;2022-12-31T05:41:56;98.0;;;48.2;;
40012;SDS011;37387;42.672;23.334;2022-12-31T05:42:56;96.9;;;47.7;;
40012;SDS011;37387;42.672;23.334;2022-12-31T05:43:56;93.8;;;49.1;;
40012;SDS011;37387;42.672;23.334;2022-12-31T05:44:56;95.6;;;49.8;;
40012;SDS011;37387;42.672;23.334;2022-12-31T05:45:58;95.6;;;47.3;;
40012;SDS011;37387;42.672;23.334;2022-12-31T05:46:56;95.0;;;47.5;;
40012;SDS011;37387;42.672;23.334;2022-12-31T05:47:55;95.2;;;47.4;;
40012;SDS011;37387;42.672;23.334;2022-12-31T05:48:55;95.2;;;46.5;;
40012;SDS011;37387;42.672;23.334;2022-12-31T05:49:55;93.2;;;48.2;;
40012;SDS011;37387;42.672;23.334;2022-12-31T05:50:55;95.0;;;47.7;;
40012;SDS011;37387;42.672;23.334;2022-12-31T05:51:55;89.9;;;45.7;;
40012;SDS011;37387;42.672;23.334;2022-12-31T05:52:55;89.9;;;46.1;;
40012;SDS011;37387;42.672;23.334;2022-12-31T05:53:55;86.1;;;45.6;;
40012;SDS011;37387;42.672;23.334;2022-12-31T05:54:55;91.6;;;45.9;;
40012;SDS011;37387;42.672;23.334;2022-12-31T05:55:54;92.0;;;45.0;;
40012;SDS011;37387;42.672;23.334;2022-12-31T05:56:54;88.7;;;45.2;;
40012;SDS011;37387;42.672;23.334;2022-12-31T05:57:54;88.7;;;44.3;;
40012;SDS011;37387;42.672;23.334;2022-12-31T05:58:54;85.6;;;43.5;;
40012;SDS011;37387;42.672;23.334;2022-12-31T05:59:54;86.9;;;42.5;;
40012;SDS011;37387;42.672;23.334;2022-12-31T06:00:54;83.5;;;43.2;;
40012;SDS011;37387;42.672;23.334;2022-12-31T06:01:54;90.7;;;43.5;;
40012;SDS011;37387;42.672;23.334;2022-12-31T06:02:54;80.7;;;41.6;;
40012;SDS011;37387;42.672;23.334;2022-12-31T06:03:53;80.3;;;41.9;;
40012;SDS011;37387;42.672;23.334;2022-12-31T06:04:53;84.5;;;42.7;;
40012;SDS011;37387;42.672;23.334;2022-12-31T06:05:53;75.5;;;39.0;;
40012;SDS011;37387;42.672;23.334;2022-12-31T06:06:53;75.5;;;40.2;;
40012;SDS011;37387;42.672;23.334;2022-12-31T06:07:53;79.2;;;37.9;;
40012;SDS011;37387;42.672;23.334;2022-12-31T06:08:53;79.2;;;37.1;;
40012;SDS011;37387;42.672;23.334;2022-12-31T06:09:53;74.2;;;37.2;;